Flight Track Log - Related Links

Times and Time Zones

All times are in EST time to prevent confusion due to time zone crossing. See the JBU56 flight status page for this flight to view local times or setup timezone preferences in your user account.

Time Position Orientation Groundspeed Altitude Reporting Facility
EST Latitude Longitude Course Direction KTS MPH feet Rate Location/Type
Mon 09:48:15 AM 38.9500 -77.5000 90° East 152 175 1,800  Level Potomac TRACON
Mon 09:49:16 AM 38.9833 -77.5500 311° West 209 241 3,500 2,139 Climbing Potomac TRACON
Mon 09:50:10 AM 39.0333 -77.6000 322° Northwest 260 299 5,900 2,393 Climbing Potomac TRACON
Mon 09:51:00 AM 39.1935 -77.0369 74° East  Level Estimated
Mon 09:51:59 AM 39.1217 -77.4750 48° Northeast 284 327 10,000  Level Washington Center
Mon 09:52:00 AM 39.2548 -76.9306 76° East  Level Estimated
Mon 09:52:57 AM 39.1569 -77.3583 69° East 316 364 10,000  Level Washington Center
Mon 09:53:00 AM 39.3160 -76.8242 90° East  Level Estimated
Mon 09:53:57 AM 39.1253 -77.2344 108° East 324 373 12,200  Level Washington Center
Mon 09:54:58 AM 39.0872 -77.1078 111° Southeast 345 397 14,800 2,430 Climbing Washington Center
Mon 09:55:58 AM 39.0556 -76.9708 107° East 373 429 17,100 1,934 Climbing Washington Center
Mon 09:56:59 AM 39.0675 -76.8242 84° East 393 452 18,700 1,765 Climbing Washington Center
Mon 09:57:57 AM 39.0878 -76.6747 80° East 401 461 20,600 1,932 Climbing Washington Center
Mon 09:58:57 AM 39.1100 -76.5144 80° East 427 491 22,500 1,190 Climbing Washington Center
Mon 09:59:58 AM 39.1319 -76.3542 80° East 442 509 23,000 252 Climbing Washington Center
Mon 10:00:56 AM 39.1536 -76.1911 80° East 454 522 23,000 504 Level Washington Center
Mon 10:01:57 AM 39.1731 -76.0253 81° East 464 534 24,000 1,180 Climbing Washington Center
Mon 10:02:58 AM 39.2089 -75.8622 74° East 469 540 25,400 1,426 Climbing Washington Center
Mon 10:03:59 AM 39.3031 -75.7417 45° Northeast 451 519 26,900 1,261 Climbing Washington Center
Mon 10:04:57 AM 39.3864 -75.6344 45° Northeast 461 531 27,900 1,119 Climbing Washington Center
Mon 10:05:57 AM 39.4928 -75.4947 45° Northeast 475 547 29,100 1,388 Climbing Washington Center
Mon 10:06:58 AM 39.5781 -75.3842 45° Northeast 485 558 30,700 699 Climbing Washington Center
Mon 10:08:40 AM 39.7489 -75.1422 47° Northeast 470 541 31,000 111 Climbing New York Center
Mon 10:09:40 AM 39.8456 -75.0078 47° Northeast 490 564 31,000  Level New York Center
Mon 10:10:41 AM 39.9400 -74.8753 47° Northeast 497 572 31,000  Level New York Center
Mon 10:11:40 AM 40.0281 -74.7422 49° Northeast 497 572 31,000  Level New York Center
Mon 10:12:40 AM 40.1219 -74.6092 47° Northeast 497 572 31,000  Level New York Center
Mon 10:13:40 AM 40.2111 -74.4917 45° Northeast 492 566 31,000  Level New York Center
Mon 10:14:40 AM 40.3153 -74.3586 44° Northeast 492 566 31,000  Level New York Center
Mon 10:15:40 AM 40.3900 -74.2317 52° Northeast 492 566 31,000  Level New York Center
Mon 10:17:46 AM 40.5642 -73.9433 51° Northeast 494 568 31,000 -217 Level Boston Center
Mon 10:19:00 AM 40.6105 -73.7875 69° East  Level FlightAware Approximate
Mon 10:19:49 AM 40.7333 -73.6589 69° East 495 570 30,100  Level Boston Center
Mon 10:20:50 AM 40.8150 -73.5192 52° Northeast 482 555 27,800 -1,512 Descending Boston Center
Mon 10:21:52 AM 40.9125 -73.3653 50° Northeast 458 527 27,000 -393 Descending Boston Center
Mon 10:22:52 AM 40.9856 -73.2581 48° Northeast 455 524 27,000 -149 Level Boston Center
Mon 10:23:53 AM 41.0686 -73.1331 49° Northeast 454 522 26,700 -1,180 Descending Boston Center
Mon 10:24:54 AM 41.1517 -73.0097 48° Northeast 451 519 24,600 -1,835 Descending Boston Center
Mon 10:25:54 AM 41.2394 -72.8608 52° Northeast 436 502 23,000 -787 Descending Boston Center
Mon 10:26:56 AM 41.2933 -72.7172 63° Northeast 438 504 23,000  Level Boston Center
Mon 10:27:57 AM 41.3483 -72.5697 64° Northeast 441 507 23,000  Level Boston Center
Mon 10:28:58 AM 41.4022 -72.4211 64° Northeast 443 510 23,000  Level Boston Center
Mon 10:29:58 AM 41.4561 -72.2744 64° Northeast 443 510 23,000  Level Boston Center
Mon 10:31:01 AM 41.5100 -72.1267 64° Northeast 442 509 23,000 -290 Level Boston Center
Mon 10:32:02 AM 41.5606 -71.9833 65° Northeast 441 507 22,400 -1,328 Descending Boston Center
Mon 10:33:03 AM 41.6050 -71.8336 68° East 436 502 20,300 -2,115 Descending Boston Center
Mon 10:34:04 AM 41.6553 -71.6675 68° East 416 479 18,100 -2,083 Descending Boston Center
Mon 10:35:04 AM 41.6975 -71.5247 68° East 391 450 16,100 -1,854 Descending Boston Center
Mon 10:36:07 AM 41.7389 -71.3958 67° East 381 438 14,300 -1,680 Descending Boston Center
Mon 10:37:09 AM 41.7889 -71.2814 60° Northeast 358 412 12,600 -1,623 Descending Boston Center
Mon 10:38:09 AM 41.8628 -71.2006 39° Northeast 322 371 11,000 -1,438 Descending Boston Center
Mon 10:39:10 AM 41.9289 -71.1397 34° Northeast 290 334 9,700 -1,426 Descending Boston Center
Mon 10:40:11 AM 41.9906 -71.0822 35° Northeast 274 315 8,100 -1,574 Descending Boston Center
Mon 10:41:12 AM 42.0519 -71.0261 34° Northeast 267 307 6,500 -1,033 Descending Boston Center
Mon 10:42:13 AM 42.1158 -70.9647 35° Northeast 265 305 6,000 -992 Descending Boston Center
Mon 10:43:13 AM 42.1542 -70.8839 57° Northeast 274 315 4,500 -1,174 Descending Boston Center
Mon 10:44:31 AM 42.2000 -70.8000 54° Northeast 222 255 3,300 -652 Descending KA90
Mon 10:45:31 AM 42.2500 -70.8333 334° Northwest 162 186 3,000 -280 Descending KA90
Mon 10:46:18 AM 42.2633 -70.8717 295° West 156 180 2,800 -611 Descending Boston Center
Mon 10:47:19 AM 42.2928 -70.9094 317° Northwest 149 171 1,900 -836 Descending Boston Center
Mon 10:48:20 AM 42.3200 -70.9467 315° West 141 162 1,100 -793 Descending Boston Center
Mon 10:49:20 AM 42.3467 -70.9781 319° Northwest 130 150 300 -800 Descending Boston Center

Login

Don't have an account? Register now (free) for customized features, flight alerts, and more!